Time;durP1;ratioP1;P1;durP2;ratioP2;P2;SDS_P1;SDS_P2;PMS_P1;PMS_P2;Temp;Humidity;BMP_temperature;BMP_pressure;BME280_temperature;BME280_humidity;BME280_pressure;Samples;Min_cycle;Max_cycle;Signal;HPM_P1;HPM_P2
2021/08/12 00:02:24;;;;;;;;;;;;;;;18.29;100.00;99024.00;5040497;28;19932;-78
2021/08/12 00:04:52;;;;;;;;;;;;;;;17.98;100.00;99029.09;5073792;28;19990;-78
2021/08/12 00:07:21;;;;;;;;;;;;;;;17.93;100.00;99029.75;5057183;28;20019;-78
2021/08/12 00:09:48;;;;;;;;;;;;;;;17.40;100.00;99036.97;5057052;28;19924;-78
2021/08/12 00:12:15;;;;;;;;;;;;;;;17.78;100.00;99029.59;5074604;28;20013;-79
2021/08/12 00:14:42;;;;;;;;;;;;;;;17.93;100.00;99039.00;5074648;28;19925;-79
2021/08/12 00:17:09;;;;;;;;;;;;;;;17.70;100.00;99038.88;5056512;28;19924;-78
2021/08/12 00:19:36;;;;;;;;;;;;;;;17.76;100.00;99032.13;5074489;28;19993;-79
2021/08/12 00:22:03;;;;;;;;;;;;;;;17.77;100.00;99041.38;5056915;28;19962;-79
2021/08/12 00:24:31;;;;;;;;;;;;;;;17.57;100.00;99047.53;5039913;28;19971;-78
2021/08/12 00:26:58;;;;;;;;;;;;;;;17.74;100.00;99042.31;5074280;28;19960;-79
2021/08/12 00:29:29;;;;;;;;;;;;;;;17.61;100.00;99048.16;5056904;28;20022;-79
2021/08/12 00:32:02;;;;;;;;;;;;;;;17.50;100.00;99047.84;5057308;28;19948;-79
2021/08/12 00:34:31;;;;;;;;;;;;;;;17.14;100.00;99038.53;5073744;28;19924;-79
2021/08/12 00:36:58;;;;;;;;;;;;;;;16.93;100.00;99043.03;5053113;28;20011;-79
2021/08/12 00:39:25;;;;;;;;;;;;;;;17.10;100.00;99035.84;5056159;28;19925;-78
2021/08/12 00:41:53;;;;;;;;;;;;;;;17.25;100.00;99041.69;5055410;28;19925;-79
2021/08/12 00:44:20;;;;;;;;;;;;;;;17.07;100.00;99041.66;5039439;28;19924;-78
2021/08/12 00:46:47;;;;;;;;;;;;;;;16.69;100.00;99044.81;5039300;28;19935;-78
2021/08/12 00:49:18;;;;;;;;;;;;;;;16.86;100.00;99045.34;5039911;28;19928;-78
2021/08/12 00:51:48;;;;;;;;;;;;;;;16.87;100.00;99049.75;5038706;28;19931;-78
2021/08/12 00:54:15;;;;;;;;;;;;;;;16.85;100.00;99035.31;5040102;28;19959;-78
2021/08/12 00:56:43;;;;;;;;;;;;;;;16.38;100.00;99037.63;5055893;28;19934;-78
2021/08/12 00:59:11;;;;;;;;;;;;;;;16.36;100.00;99040.13;5056229;28;19956;-78
2021/08/12 01:01:39;;;;;;;;;;;;;;;16.28;100.00;99048.09;5033337;28;19925;-78
2021/08/12 01:04:06;;;;;;;;;;;;;;;16.38;100.00;99052.50;5055830;28;20310;-78
2021/08/12 01:06:47;;;;;;;;;;;;;;;16.46;100.00;99047.41;5039553;28;19924;-78
2021/08/12 01:09:21;;;;;;;;;;;;;;;16.61;100.00;99048.41;5039210;28;19986;-78
2021/08/12 01:11:52;;;;;;;;;;;;;;;16.64;100.00;99053.13;5039327;28;19928;-78
2021/08/12 01:14:20;;;;;;;;;;;;;;;16.41;100.00;99062.06;5042945;28;19924;-78
2021/08/12 01:16:50;;;;;;;;;;;;;;;16.02;100.00;99061.53;5057344;28;19932;-78
2021/08/12 01:19:27;;;;;;;;;;;;;;;15.80;100.00;99062.78;5056351;28;20011;-78
2021/08/12 01:21:57;;;;;;;;;;;;;;;15.97;100.00;99061.34;5057798;28;19924;-78
2021/08/12 01:24:31;;;;;;;;;;;;;;;16.28;100.00;99062.94;5024829;28;19924;-78
2021/08/12 01:27:02;;;;;;;;;;;;;;;16.52;100.00;99056.84;5041585;28;19929;-78
2021/08/12 01:29:37;;;;;;;;;;;;;;;16.72;100.00;99065.69;5057905;28;19931;-78
2021/08/12 01:32:07;;;;;;;;;;;;;;;16.50;100.00;99059.31;5044041;28;20016;-78
2021/08/12 01:34:53;;;;;;;;;;;;;;;16.71;100.00;99059.25;5061620;28;19951;-78
2021/08/12 01:37:21;;;;;;;;;;;;;;;16.65;100.00;99060.31;5066608;28;19931;-78
2021/08/12 01:39:49;;;;;;;;;;;;;;;16.44;100.00;99052.72;5055500;28;19978;-78
2021/08/12 01:42:17;;;;;;;;;;;;;;;16.51;100.00;99047.56;5038732;28;20054;-78
2021/08/12 01:44:46;;;;;;;;;;;;;;;16.25;100.00;99046.19;5055563;28;19936;-78
2021/08/12 01:47:16;;;;;;;;;;;;;;;16.04;100.00;99039.31;5055522;28;19929;-78
2021/08/12 01:49:44;;;;;;;;;;;;;;;16.09;100.00;99041.56;5039026;28;20313;-78
2021/08/12 01:52:11;;;;;;;;;;;;;;;16.04;100.00;99027.25;5055577;28;19924;-78
2021/08/12 01:54:44;;;;;;;;;;;;;;;15.89;100.00;99026.22;5055559;28;19925;-78
2021/08/12 01:57:12;;;;;;;;;;;;;;;16.21;100.00;99040.69;5039128;28;19928;-78
2021/08/12 01:59:41;;;;;;;;;;;;;;;16.34;100.00;99039.81;5035844;28;19925;-78
2021/08/12 02:02:09;;;;;;;;;;;;;;;16.31;100.00;99044.34;5036074;28;19928;-78
2021/08/12 02:04:37;;;;;;;;;;;;;;;16.04;100.00;99042.16;5055554;28;20139;-78
2021/08/12 02:07:06;;;;;;;;;;;;;;;15.54;100.00;99044.47;5037477;28;19925;-78
2021/08/12 02:09:34;;;;;;;;;;;;;;;15.83;100.00;99042.94;5038866;28;19925;-78
2021/08/12 02:12:03;;;;;;;;;;;;;;;15.91;100.00;99043.47;5039058;28;19978;-78
2021/08/12 02:14:32;;;;;;;;;;;;;;;15.99;100.00;99051.19;5039418;28;19977;-78
2021/08/12 02:17:00;;;;;;;;;;;;;;;15.98;100.00;99035.53;5055091;28;19925;-78
2021/08/12 02:19:28;;;;;;;;;;;;;;;15.97;100.00;99031.16;5055131;28;19932;-78
2021/08/12 02:22:01;;;;;;;;;;;;;;;15.73;100.00;99029.25;5063521;28;19932;-78
2021/08/12 02:24:33;;;;;;;;;;;;;;;15.63;100.00;99025.59;5050688;28;19931;-78
2021/08/12 02:27:02;;;;;;;;;;;;;;;15.34;100.00;99029.88;5073171;28;20457;-78
2021/08/12 02:29:33;;;;;;;;;;;;;;;15.46;100.00;99027.03;5058489;28;19924;-78
2021/08/12 02:32:01;;;;;;;;;;;;;;;15.46;100.00;99026.25;5059132;28;20019;-78
2021/08/12 02:34:29;;;;;;;;;;;;;;;15.54;100.00;99017.06;5058965;28;19925;-78
2021/08/12 02:36:57;;;;;;;;;;;;;;;15.74;100.00;99020.34;5058955;28;20425;-78
2021/08/12 02:39:25;;;;;;;;;;;;;;;15.50;100.00;99027.69;5042492;28;19924;-78
2021/08/12 02:41:54;;;;;;;;;;;;;;;15.59;100.00;99027.75;5042244;28;19978;-78
2021/08/12 02:44:21;;;;;;;;;;;;;;;15.61;100.00;99019.66;5038748;28;19925;-78
2021/08/12 02:46:50;;;;;;;;;;;;;;;15.38;100.00;99014.47;5022813;28;19931;-78
2021/08/12 02:49:18;;;;;;;;;;;;;;;15.50;100.00;99010.78;5022330;28;19932;-78
2021/08/12 02:51:46;;;;;;;;;;;;;;;15.41;100.00;99002.28;5041962;28;19924;-78
2021/08/12 02:54:13;;;;;;;;;;;;;;;15.26;100.00;99001.19;5041866;28;19994;-78
2021/08/12 02:56:40;;;;;;;;;;;;;;;15.30;100.00;99007.47;5022189;28;20372;-78
2021/08/12 02:59:08;;;;;;;;;;;;;;;15.24;100.00;99020.56;5038415;28;19928;-78
2021/08/12 03:01:38;;;;;;;;;;;;;;;14.77;100.00;99014.16;5034862;28;19924;-78
2021/08/12 03:04:07;;;;;;;;;;;;;;;14.69;100.00;99018.47;5058432;28;19924;-78
2021/08/12 03:06:34;;;;;;;;;;;;;;;14.84;100.00;99019.56;5058256;28;19931;-78
2021/08/12 03:09:01;;;;;;;;;;;;;;;14.91;100.00;99019.31;5076068;28;19924;-78
2021/08/12 03:11:30;;;;;;;;;;;;;;;15.02;100.00;99025.38;5041822;28;20363;-78
2021/08/12 03:14:00;;;;;;;;;;;;;;;15.01;100.00;99020.97;5058031;28;19932;-78
2021/08/12 03:16:29;;;;;;;;;;;;;;;14.97;100.00;99025.94;5021971;28;19936;-78
2021/08/12 03:18:57;;;;;;;;;;;;;;;14.74;100.00;99022.72;5053813;28;19925;-77
2021/08/12 03:21:24;;;;;;;;;;;;;;;14.77;100.00;99030.25;5038040;28;19924;-78
2021/08/12 03:23:52;;;;;;;;;;;;;;;14.40;100.00;99021.38;5038531;28;19932;-78
2021/08/12 03:26:19;;;;;;;;;;;;;;;14.36;100.00;99028.34;5058042;28;19976;-78
2021/08/12 03:28:46;;;;;;;;;;;;;;;14.67;100.00;99026.56;5057763;28;20311;-78
2021/08/12 03:31:14;;;;;;;;;;;;;;;14.62;100.00;99035.53;5057785;28;20272;-78
2021/08/12 03:33:42;;;;;;;;;;;;;;;14.66;100.00;99036.22;5041347;28;20348;-78
2021/08/12 03:36:09;;;;;;;;;;;;;;;14.48;100.00;99033.19;5057764;28;20308;-78
2021/08/12 03:38:36;;;;;;;;;;;;;;;14.45;100.00;99039.72;5075225;28;19924;-78
2021/08/12 03:41:04;;;;;;;;;;;;;;;14.11;100.00;99045.19;5057304;28;19931;-78
2021/08/12 03:43:31;;;;;;;;;;;;;;;13.85;100.00;99049.97;5058760;28;19931;-78
2021/08/12 03:45:59;;;;;;;;;;;;;;;13.46;100.00;99055.09;5067701;28;20322;-78
2021/08/12 03:48:26;;;;;;;;;;;;;;;13.68;100.00;99056.06;5057359;28;19928;-78
2021/08/12 03:50:53;;;;;;;;;;;;;;;14.03;100.00;99055.03;5056415;28;19924;-78
2021/08/12 03:53:20;;;;;;;;;;;;;;;14.31;100.00;99060.63;5056778;28;19947;-78
2021/08/12 03:55:48;;;;;;;;;;;;;;;14.29;100.00;99056.69;5057174;28;19935;-78
2021/08/12 03:58:15;;;;;;;;;;;;;;;14.31;100.00;99043.00;5040849;28;20338;-78
2021/08/12 04:00:43;;;;;;;;;;;;;;;14.45;100.00;99039.72;5024474;28;19978;-78
2021/08/12 04:03:10;;;;;;;;;;;;;;;14.52;100.00;99042.31;5057225;28;19976;-78
2021/08/12 04:05:38;;;;;;;;;;;;;;;14.43;100.00;99047.81;5057212;28;19932;-78
2021/08/12 04:08:06;;;;;;;;;;;;;;;14.39;100.00;99038.69;5024220;28;20291;-78
2021/08/12 04:10:34;;;;;;;;;;;;;;;14.60;100.00;99038.00;5040606;28;20616;-78
2021/08/12 04:13:01;;;;;;;;;;;;;;;14.79;100.00;99045.44;5057016;28;19928;-78
2021/08/12 04:15:29;;;;;;;;;;;;;;;14.90;100.00;99034.63;5057127;28;19928;-78
2021/08/12 04:17:56;;;;;;;;;;;;;;;14.84;100.00;99033.63;5074804;28;20520;-78
2021/08/12 04:20:23;;;;;;;;;;;;;;;14.73;100.00;99036.00;5056623;28;19929;-78
2021/08/12 04:22:50;;;;;;;;;;;;;;;14.38;100.00;99042.75;5056765;28;19924;-78
2021/08/12 04:25:41;;;;;;;;;;;;;;;14.37;100.00;99044.00;5091233;28;19939;-79
2021/08/12 04:28:09;;;;;;;;;;;;;;;13.94;100.00;99040.88;5090088;28;19939;-79
2021/08/12 04:30:36;;;;;;;;;;;;;;;14.29;100.00;99048.25;5106877;28;19964;-79
2021/08/12 04:33:03;;;;;;;;;;;;;;;13.91;100.00;99038.97;5080099;28;19925;-79
2021/08/12 04:35:31;;;;;;;;;;;;;;;14.07;100.00;99048.09;5104790;28;19932;-78
2021/08/12 04:37:58;;;;;;;;;;;;;;;14.28;100.00;99052.31;5079266;28;19924;-78
2021/08/12 04:40:25;;;;;;;;;;;;;;;13.99;100.00;99040.34;5114794;28;19925;-78
2021/08/12 04:42:53;;;;;;;;;;;;;;;14.27;100.00;99042.28;5086512;28;20435;-79
2021/08/12 04:45:21;;;;;;;;;;;;;;;14.32;100.00;99039.72;5081723;28;20269;-79
2021/08/12 04:47:48;;;;;;;;;;;;;;;14.45;100.00;99031.28;5079125;28;19929;-79
2021/08/12 04:50:16;;;;;;;;;;;;;;;14.38;100.00;99042.75;5079214;28;19924;-79
2021/08/12 04:52:45;;;;;;;;;;;;;;;14.33;100.00;99041.28;5073483;28;19928;-79
2021/08/12 04:55:12;;;;;;;;;;;;;;;14.24;100.00;99038.38;5071646;28;19925;-78
2021/08/12 04:57:39;;;;;;;;;;;;;;;14.15;100.00;99045.84;5082109;28;19931;-79
2021/08/12 05:00:08;;;;;;;;;;;;;;;13.31;100.00;99045.50;5072742;28;19971;-78
2021/08/12 05:02:35;;;;;;;;;;;;;;;13.51;100.00;99046.16;5071678;28;19925;-79
2021/08/12 05:05:02;;;;;;;;;;;;;;;13.60;100.00;99049.88;5089035;28;19925;-79
2021/08/12 05:07:30;;;;;;;;;;;;;;;13.80;100.00;99052.50;5089217;28;20283;-79
2021/08/12 05:09:58;;;;;;;;;;;;;;;13.92;100.00;99048.94;5072024;28;19932;-79
2021/08/12 05:12:25;;;;;;;;;;;;;;;13.91;100.00;99053.00;5072274;28;20011;-79
2021/08/12 05:14:53;;;;;;;;;;;;;;;14.00;100.00;99055.94;5071466;28;19932;-79
2021/08/12 05:17:20;;;;;;;;;;;;;;;14.06;100.00;99048.53;5088827;28;19932;-79
2021/08/12 05:19:47;;;;;;;;;;;;;;;14.06;100.00;99049.34;5072215;28;19931;-79
2021/08/12 05:22:18;;;;;;;;;;;;;;;13.77;100.00;99053.41;5063484;28;19971;-79
2021/08/12 05:24:46;;;;;;;;;;;;;;;13.58;100.00;99057.97;5083043;28;19925;-79
2021/08/12 05:27:14;;;;;;;;;;;;;;;13.81;100.00;99054.88;5105881;28;20062;-79
2021/08/12 05:29:42;;;;;;;;;;;;;;;13.38;100.00;99056.53;5088557;28;19950;-79
2021/08/12 05:32:09;;;;;;;;;;;;;;;13.52;100.00;99065.38;5088721;28;19928;-79
2021/08/12 05:34:36;;;;;;;;;;;;;;;13.72;100.00;99068.78;5088806;28;19924;-79
2021/08/12 05:37:04;;;;;;;;;;;;;;;13.93;100.00;99067.41;5057851;28;20279;-79
2021/08/12 05:39:31;;;;;;;;;;;;;;;14.11;100.00;99062.84;5075150;28;19931;-79
2021/08/12 05:42:01;;;;;;;;;;;;;;;14.22;100.00;99062.50;5076038;28;19928;-79
2021/08/12 05:44:28;;;;;;;;;;;;;;;13.89;100.00;99069.50;5074874;28;20009;-79
2021/08/12 05:46:55;;;;;;;;;;;;;;;13.78;100.00;99080.28;5074617;28;19998;-79
2021/08/12 05:49:24;;;;;;;;;;;;;;;14.09;100.00;99081.34;5074975;28;19939;-79
2021/08/12 05:51:52;;;;;;;;;;;;;;;14.12;100.00;99075.63;5051913;28;19929;-79
2021/08/12 05:54:20;;;;;;;;;;;;;;;14.34;100.00;99078.63;5074659;28;20248;-79
2021/08/12 05:56:47;;;;;;;;;;;;;;;14.59;100.00;99084.25;5075907;28;19925;-79
2021/08/12 05:59:14;;;;;;;;;;;;;;;14.78;100.00;99082.44;5069420;28;20011;-79
2021/08/12 06:01:41;;;;;;;;;;;;;;;14.52;100.00;99081.66;5095344;28;19932;-79
2021/08/12 06:04:09;;;;;;;;;;;;;;;14.33;100.00;99074.22;5074561;28;19966;-79
2021/08/12 06:06:36;;;;;;;;;;;;;;;14.25;100.00;99078.50;5059933;28;19932;-78
2021/08/12 06:09:05;;;;;;;;;;;;;;;14.00;100.00;99084.03;5057466;28;19928;-79
2021/08/12 06:11:34;;;;;;;;;;;;;;;14.62;100.00;99088.97;5074052;28;19928;-79
2021/08/12 06:14:35;;;;;;;;;;;;;;;14.28;100.00;99084.00;5073904;28;19952;-78
2021/08/12 06:17:07;;;;;;;;;;;;;;;14.95;100.00;99092.34;5035464;28;19931;-78
2021/08/12 06:19:36;;;;;;;;;;;;;;;15.45;100.00;99090.22;5035877;28;19929;-80
2021/08/12 06:22:03;;;;;;;;;;;;;;;15.86;100.00;99089.13;5071542;28;19932;-79
2021/08/12 06:24:32;;;;;;;;;;;;;;;16.34;100.00;99090.56;5067044;28;20009;-79
2021/08/12 06:27:03;;;;;;;;;;;;;;;16.66;100.00;99093.72;5038274;28;19932;-79
2021/08/12 06:29:30;;;;;;;;;;;;;;;16.92;100.00;99088.66;5043744;28;20012;-79
2021/08/12 06:31:57;;;;;;;;;;;;;;;16.70;100.00;99079.47;5074141;28;19932;-79
2021/08/12 06:34:25;;;;;;;;;;;;;;;16.82;100.00;99081.41;5054800;28;19925;-79
2021/08/12 06:36:52;;;;;;;;;;;;;;;17.00;100.00;99070.16;5043392;28;19939;-79
2021/08/12 06:39:21;;;;;;;;;;;;;;;16.97;100.00;99054.97;5066847;28;20438;-79
2021/08/12 06:41:48;;;;;;;;;;;;;;;17.09;100.00;99064.53;5049841;28;20302;-79
2021/08/12 06:44:17;;;;;;;;;;;;;;;17.17;100.00;99066.63;5053581;28;19924;-80
2021/08/12 06:46:45;;;;;;;;;;;;;;;16.94;100.00;99069.19;5050445;28;19933;-79
2021/08/12 06:49:13;;;;;;;;;;;;;;;16.42;100.00;99058.78;5061083;28;20026;-79
2021/08/12 06:51:44;;;;;;;;;;;;;;;16.54;100.00;99068.44;5052220;28;20492;-81
2021/08/12 06:54:37;;;;;;;;;;;;;;;17.47;100.00;99062.91;5058861;28;19956;-79
2021/08/12 06:57:07;;;;;;;;;;;;;;;18.67;100.00;99066.66;5057683;28;19925;-79
2021/08/12 06:59:37;;;;;;;;;;;;;;;18.68;100.00;99045.56;5056287;28;19928;-79
2021/08/12 07:02:06;;;;;;;;;;;;;;;18.77;100.00;99053.22;5069796;28;19924;-79
2021/08/12 07:04:33;;;;;;;;;;;;;;;20.35;100.00;99053.44;5069755;28;20458;-79
2021/08/12 07:07:01;;;;;;;;;;;;;;;21.61;100.00;99026.16;5033142;28;19991;-79
2021/08/12 07:09:28;;;;;;;;;;;;;;;22.19;100.00;99022.13;5050083;28;19925;-79
2021/08/12 07:11:57;;;;;;;;;;;;;;;21.88;100.00;99017.16;5053375;28;19924;-79
2021/08/12 07:14:25;;;;;;;;;;;;;;;22.00;100.00;99016.00;5053170;28;19924;-80
2021/08/12 07:16:53;;;;;;;;;;;;;;;23.06;100.00;99019.22;5051757;28;19931;-80
2021/08/12 07:19:20;;;;;;;;;;;;;;;24.50;100.00;99002.56;5058076;28;19940;-80
2021/08/12 07:26:36;;;;;;;;;;;;;;;23.88;100.00;98992.34;4976307;28;20380;-81
2021/08/12 07:29:16;;;;;;;;;;;;;;;23.45;100.00;98982.34;4997030;28;20454;-80
2021/08/12 07:31:44;;;;;;;;;;;;;;;22.17;100.00;98999.09;4995740;28;19947;-79
2021/08/12 07:34:12;;;;;;;;;;;;;;;21.59;100.00;98988.91;4995486;28;19925;-79
2021/08/12 07:36:39;;;;;;;;;;;;;;;21.37;100.00;98991.50;4985468;28;19997;-79
2021/08/12 07:39:08;;;;;;;;;;;;;;;22.37;100.00;98979.09;4995830;28;19925;-80
2021/08/12 07:41:39;;;;;;;;;;;;;;;23.13;100.00;98971.59;4988923;28;19976;-79
2021/08/12 07:44:06;;;;;;;;;;;;;;;23.49;100.00;98962.16;4991135;28;19929;-79
2021/08/12 07:46:33;;;;;;;;;;;;;;;24.30;100.00;98963.63;4977685;28;19926;-79
2021/08/12 07:49:01;;;;;;;;;;;;;;;24.96;100.00;98959.94;4982105;28;20088;-79
2021/08/12 07:51:29;;;;;;;;;;;;;;;25.48;100.00;98954.28;5002480;28;20033;-79
2021/08/12 07:53:56;;;;;;;;;;;;;;;26.02;100.00;98956.03;5007725;28;19951;-79
2021/08/12 07:56:24;;;;;;;;;;;;;;;25.05;100.00;98958.84;5011401;28;20068;-80
2021/08/12 07:58:51;;;;;;;;;;;;;;;24.73;100.00;98976.31;5006701;28;20034;-79
2021/08/12 08:01:20;;;;;;;;;;;;;;;24.47;100.00;98975.03;4989547;28;19928;-80
2021/08/12 08:03:47;;;;;;;;;;;;;;;23.30;100.00;98992.41;5053861;28;19924;-80
2021/08/12 08:06:14;;;;;;;;;;;;;;;24.98;100.00;98991.59;5056039;28;19925;-80
2021/08/12 08:08:41;;;;;;;;;;;;;;;24.94;100.00;98982.53;5057467;28;19925;-80
2021/08/12 08:11:09;;;;;;;;;;;;;;;24.25;100.00;98987.22;5054546;28;20326;-80
2021/08/12 08:13:35;;;;;;;;;;;;;;;24.88;100.00;98993.19;5053703;28;19932;-80
2021/08/12 08:16:03;;;;;;;;;;;;;;;23.65;100.00;98996.44;5037270;28;19929;-79
2021/08/12 08:18:32;;;;;;;;;;;;;;;22.90;100.00;98997.09;5056109;28;20279;-79
2021/08/12 08:20:59;;;;;;;;;;;;;;;23.17;100.00;99003.44;5054745;28;19928;-77
2021/08/12 08:23:26;;;;;;;;;;;;;;;23.43;100.00;99009.84;5069922;28;19924;-80
2021/08/12 08:25:53;;;;;;;;;;;;;;;22.82;100.00;99004.56;5053491;28;19925;-82
2021/08/12 08:28:21;;;;;;;;;;;;;;;23.01;100.00;99010.63;5053167;28;19924;-80
2021/08/12 08:30:48;;;;;;;;;;;;;;;22.79;100.00;99016.97;5052014;28;20294;-80
2021/08/12 08:33:15;;;;;;;;;;;;;;;22.45;100.00;99020.81;5054701;28;19929;-80
2021/08/12 08:35:42;;;;;;;;;;;;;;;22.52;100.00;99020.38;5053398;28;20387;-80
2021/08/12 08:38:09;;;;;;;;;;;;;;;22.53;100.00;99021.94;5054458;28;19951;-80
2021/08/12 08:40:36;;;;;;;;;;;;;;;22.95;100.00;99022.00;5053159;28;20309;-80
2021/08/12 08:43:03;;;;;;;;;;;;;;;23.28;100.00;99017.81;5052546;28;19924;-80
2021/08/12 08:45:30;;;;;;;;;;;;;;;23.94;100.00;99009.47;5071848;28;19928;-80
2021/08/12 08:48:00;;;;;;;;;;;;;;;24.75;100.00;99008.00;5060102;28;19970;-80
2021/08/12 08:50:32;;;;;;;;;;;;;;;23.68;100.00;99001.09;5054853;28;19952;-80
2021/08/12 08:53:00;;;;;;;;;;;;;;;22.41;100.00;99017.41;5067943;28;20233;-80
2021/08/12 08:55:28;;;;;;;;;;;;;;;22.53;100.00;99012.63;5087204;28;19924;-82
2021/08/12 08:57:56;;;;;;;;;;;;;;;22.80;100.00;99009.97;5056130;28;20413;-81
2021/08/12 09:00:24;;;;;;;;;;;;;;;23.70;100.00;99000.59;5052154;28;19925;-81
2021/08/12 09:02:55;;;;;;;;;;;;;;;23.48;100.00;99009.09;5062211;28;19933;-81
2021/08/12 09:05:34;;;;;;;;;;;;;;;23.95;100.00;99016.72;5040691;28;19929;-81
2021/08/12 09:08:04;;;;;;;;;;;;;;;24.23;100.00;99006.97;5035024;28;20574;-82
2021/08/12 09:13:30;;;;;;;;;;;;;;;23.17;100.00;99000.59;5037754;28;20009;-81
2021/08/12 09:15:59;;;;;;;;;;;;;;;22.52;100.00;99014.69;5059018;28;19924;-81
2021/08/12 09:18:27;;;;;;;;;;;;;;;22.26;100.00;98999.69;5063171;28;19939;-81
2021/08/12 09:20:56;;;;;;;;;;;;;;;22.05;100.00;98989.69;5071120;28;19924;-82
2021/08/12 09:23:24;;;;;;;;;;;;;;;21.39;100.00;98994.59;5049671;28;20452;-79
2021/08/12 09:26:16;;;;;;;;;;;;;;;21.28;100.00;99005.84;5051602;28;19925;-81
2021/08/12 09:30:12;;;;;;;;;;;;;;;20.22;100.00;99011.19;5036302;28;19932;-80
2021/08/12 09:32:51;;;;;;;;;;;;;;;20.69;100.00;99010.91;5051997;28;19924;-79
2021/08/12 09:35:37;;;;;;;;;;;;;;;20.82;100.00;99010.59;5069899;28;20318;-79
2021/08/12 09:38:30;;;;;;;;;;;;;;;20.41;100.00;99004.03;5065424;28;19931;-79
2021/08/12 09:41:01;;;;;;;;;;;;;;;20.80;100.00;99005.41;5070863;28;19924;-79
2021/08/12 09:43:46;;;;;;;;;;;;;;;21.21;100.00;99003.41;5046221;28;19928;-79
2021/08/12 09:46:35;;;;;;;;;;;;;;;21.12;100.00;99003.56;5062206;28;20284;-79
2021/08/12 09:49:02;;;;;;;;;;;;;;;21.06;100.00;99002.69;5068810;28;19924;-78
2021/08/12 09:51:36;;;;;;;;;;;;;;;21.44;100.00;99005.25;5070591;28;19924;-78
2021/08/12 09:54:04;;;;;;;;;;;;;;;21.28;100.00;98991.63;5048197;28;19975;-79
2021/08/12 09:56:31;;;;;;;;;;;;;;;21.11;100.00;99005.59;5032571;28;19929;-78
2021/08/12 09:59:06;;;;;;;;;;;;;;;20.66;100.00;99005.47;5052560;28;19944;-78
2021/08/12 10:01:37;;;;;;;;;;;;;;;20.96;100.00;99004.13;5051503;28;19924;-76
2021/08/12 10:04:24;;;;;;;;;;;;;;;20.16;100.00;98993.28;5044581;28;19939;-77
2021/08/12 10:06:51;;;;;;;;;;;;;;;20.55;100.00;98988.25;5085188;28;20340;-76
2021/08/12 10:09:18;;;;;;;;;;;;;;;21.15;100.00;98992.00;5047012;28;20444;-77
2021/08/12 10:11:45;;;;;;;;;;;;;;;21.16;100.00;98984.22;5051190;28;19932;-78
2021/08/12 10:14:12;;;;;;;;;;;;;;;21.04;100.00;98979.69;5050817;28;19925;-77
2021/08/12 10:16:40;;;;;;;;;;;;;;;20.53;100.00;98980.22;5062303;28;19925;-77
2021/08/12 10:19:09;;;;;;;;;;;;;;;20.46;100.00;98980.63;5062016;28;19924;-78
2021/08/12 10:21:42;;;;;;;;;;;;;;;20.51;100.00;98984.81;5063276;28;19924;-78
2021/08/12 10:24:10;;;;;;;;;;;;;;;20.19;100.00;98969.59;5051560;28;19961;-77
2021/08/12 10:26:38;;;;;;;;;;;;;;;19.86;100.00;98973.91;5057086;28;20007;-77
2021/08/12 10:29:09;;;;;;;;;;;;;;;19.94;100.00;98969.41;5062887;28;19933;-78
2021/08/12 10:31:37;;;;;;;;;;;;;;;19.96;100.00;98961.97;5033327;28;20027;-76
2021/08/12 10:34:04;;;;;;;;;;;;;;;20.02;100.00;98962.06;5055320;28;19925;-78
2021/08/12 10:36:32;;;;;;;;;;;;;;;20.63;100.00;98958.19;5065300;28;20660;-79
2021/08/12 10:39:00;;;;;;;;;;;;;;;20.10;100.00;98949.06;5054658;28;20334;-79
2021/08/12 10:41:27;;;;;;;;;;;;;;;20.37;100.00;98966.53;5062959;28;20273;-79
2021/08/12 10:43:56;;;;;;;;;;;;;;;20.60;100.00;98959.19;5066272;28;19932;-79
2021/08/12 10:46:34;;;;;;;;;;;;;;;20.77;100.00;98963.81;5050312;28;20376;-80
2021/08/12 10:49:20;;;;;;;;;;;;;;;21.27;100.00;98953.13;5076647;28;19932;-80
2021/08/12 10:51:50;;;;;;;;;;;;;;;20.50;100.00;98957.72;5093633;28;19936;-79
2021/08/12 10:54:18;;;;;;;;;;;;;;;20.87;100.00;98965.22;5068393;28;20413;-77
2021/08/12 10:56:46;;;;;;;;;;;;;;;20.72;100.00;98967.34;5051848;28;19932;-77
2021/08/12 10:59:13;;;;;;;;;;;;;;;20.80;100.00;98942.16;5049757;28;19947;-77
2021/08/12 11:01:41;;;;;;;;;;;;;;;20.60;100.00;98950.66;5090524;28;20276;-77
2021/08/12 11:04:08;;;;;;;;;;;;;;;20.60;100.00;98953.50;5069184;28;19925;-77
2021/08/12 11:06:38;;;;;;;;;;;;;;;20.83;100.00;98955.34;5051827;28;19932;-78
2021/08/12 11:09:08;;;;;;;;;;;;;;;20.93;100.00;98942.59;5102362;28;19951;-77
2021/08/12 11:11:35;;;;;;;;;;;;;;;21.00;100.00;98945.03;5050162;28;19929;-77
2021/08/12 11:14:04;;;;;;;;;;;;;;;20.35;100.00;98945.63;5053602;28;19925;-77
2021/08/12 11:16:40;;;;;;;;;;;;;;;20.93;100.00;98945.44;5062736;28;19925;-78
2021/08/12 11:19:08;;;;;;;;;;;;;;;20.94;100.00;98944.16;5067159;28;19931;-77
2021/08/12 11:21:41;;;;;;;;;;;;;;;21.46;100.00;98951.56;5040317;28;19928;-77
2021/08/12 11:24:09;;;;;;;;;;;;;;;21.25;100.00;98938.63;5070175;28;19925;-77
2021/08/12 11:26:45;;;;;;;;;;;;;;;21.65;100.00;98941.41;5056342;28;20055;-78
2021/08/12 11:29:28;;;;;;;;;;;;;;;21.45;100.00;98944.28;5070765;28;19932;-77
2021/08/12 11:31:58;;;;;;;;;;;;;;;21.33;100.00;98934.06;5048501;28;19935;-77
2021/08/12 11:34:58;;;;;;;;;;;;;;;21.45;100.00;98923.63;5059950;28;19971;-77
2021/08/12 11:37:27;;;;;;;;;;;;;;;21.64;100.00;98928.47;5060270;28;19929;-77
2021/08/12 11:39:53;;;;;;;;;;;;;;;21.60;100.00;98938.53;5062285;28;19990;-77
2021/08/12 11:42:21;;;;;;;;;;;;;;;21.48;100.00;98948.22;5064643;28;20314;-79
2021/08/12 11:44:49;;;;;;;;;;;;;;;21.54;100.00;98955.50;5051879;28;19940;-80
2021/08/12 11:47:16;;;;;;;;;;;;;;;21.59;100.00;98954.00;5047518;28;20014;-79
2021/08/12 11:49:47;;;;;;;;;;;;;;;21.83;100.00;98952.47;5049634;28;20383;-82
2021/08/12 11:52:50;;;;;;;;;;;;;;;22.05;100.00;98949.06;5051758;28;19952;-81
2021/08/12 11:55:18;;;;;;;;;;;;;;;21.81;100.00;98932.28;5051335;28;19982;-78
2021/08/12 11:57:48;;;;;;;;;;;;;;;20.97;100.00;98943.19;5067772;28;19925;-82
2021/08/12 12:00:22;;;;;;;;;;;;;;;21.57;100.00;98945.97;5051752;28;20080;-81
2021/08/12 12:02:57;;;;;;;;;;;;;;;21.67;100.00;98950.22;5069792;28;20617;-78
2021/08/12 12:05:28;;;;;;;;;;;;;;;22.04;100.00;98947.50;5066534;28;20338;-80
2021/08/12 12:07:59;;;;;;;;;;;;;;;22.09;100.00;98950.41;5066532;28;21429;-81
2021/08/12 12:10:27;;;;;;;;;;;;;;;21.63;100.00;98946.03;5074156;28;19999;-80
2021/08/12 12:12:54;;;;;;;;;;;;;;;21.29;100.00;98944.88;5070295;28;19925;-80
2021/08/12 12:15:28;;;;;;;;;;;;;;;21.57;100.00;98956.56;5068617;28;19936;-80
2021/08/12 12:17:55;;;;;;;;;;;;;;;21.87;100.00;98952.25;5057333;28;19935;-80
2021/08/12 12:20:24;;;;;;;;;;;;;;;21.87;100.00;98938.78;5086013;28;19924;-80
2021/08/12 12:23:10;;;;;;;;;;;;;;;22.12;100.00;98940.06;5094271;28;19928;-78
2021/08/12 12:25:40;;;;;;;;;;;;;;;21.71;100.00;98935.75;5070788;28;19928;-81
2021/08/12 12:28:11;;;;;;;;;;;;;;;22.16;100.00;98932.09;5070415;28;20372;-81
2021/08/12 12:30:38;;;;;;;;;;;;;;;21.76;100.00;98930.19;5081183;28;19925;-82
2021/08/12 12:33:10;;;;;;;;;;;;;;;22.37;100.00;98925.00;5058442;28;19948;-78
2021/08/12 12:35:43;;;;;;;;;;;;;;;21.93;100.00;98916.88;5050458;28;19929;-81
2021/08/12 12:38:13;;;;;;;;;;;;;;;21.96;100.00;98924.41;5036236;28;19944;-81
2021/08/12 12:40:40;;;;;;;;;;;;;;;22.18;100.00;98907.53;5038798;28;19948;-81
2021/08/12 12:43:08;;;;;;;;;;;;;;;22.21;100.00;98900.81;5085476;28;19929;-81
2021/08/12 12:45:55;;;;;;;;;;;;;;;22.31;100.00;98913.56;5055825;28;19948;-81
2021/08/12 12:48:27;;;;;;;;;;;;;;;22.08;100.00;98900.47;5039613;28;20275;-81
2021/08/12 12:50:54;;;;;;;;;;;;;;;22.19;100.00;98900.53;5064122;28;19925;-81
2021/08/12 12:53:29;;;;;;;;;;;;;;;21.73;100.00;98899.88;5089318;28;19924;-81
2021/08/12 12:55:56;;;;;;;;;;;;;;;21.94;100.00;98912.75;5057315;28;20272;-81
2021/08/12 12:58:24;;;;;;;;;;;;;;;22.11;100.00;98905.16;5057424;28;19929;-81